createdAt,value
2022-09-10T00:00:27.539Z,2.70
2022-09-10T00:03:03.641Z,2.33
2022-09-10T00:05:30.673Z,2.60
2022-09-10T00:07:59.306Z,2.67
2022-09-10T00:10:27.127Z,2.63
2022-09-10T00:12:55.736Z,3.58
2022-09-10T00:18:41.387Z,2.60
2022-09-10T00:21:12.687Z,2.83
2022-09-10T00:23:40.997Z,2.45
2022-09-10T00:26:14.919Z,2.83
2022-09-10T00:28:46.568Z,2.70
2022-09-10T00:34:36.477Z,2.80
2022-09-10T00:37:04.559Z,2.60
2022-09-10T00:39:32.507Z,2.50
2022-09-10T00:42:00.574Z,2.47
2022-09-10T00:44:38.019Z,2.17
2022-09-10T00:47:24.132Z,2.97
2022-09-10T00:50:23.639Z,3.22
2022-09-10T00:53:21.828Z,3.00
2022-09-10T00:55:53.868Z,3.20
2022-09-10T00:58:24.266Z,3.13
2022-09-10T01:00:56.249Z,3.40
2022-09-10T01:03:27.719Z,2.88
2022-09-10T01:06:02.404Z,2.88
2022-09-10T01:08:31.284Z,2.75
2022-09-10T01:11:37.754Z,2.63
2022-09-10T01:14:32.301Z,3.38
2022-09-10T01:17:15.613Z,2.78
2022-09-10T01:20:32.135Z,2.80
2022-09-10T01:23:41.368Z,2.80
2022-09-10T01:26:18.262Z,2.45
2022-09-10T01:29:01.761Z,3.25
2022-09-10T01:31:37.192Z,2.53
2022-09-10T01:34:47.011Z,2.95
2022-09-10T01:37:27.601Z,2.85
2022-09-10T01:39:56.142Z,2.88
2022-09-10T01:42:28.596Z,2.72
2022-09-10T01:44:58.014Z,3.03
2022-09-10T01:51:19.927Z,3.03
2022-09-10T01:53:57.188Z,2.60
2022-09-10T01:56:27.611Z,2.88
2022-09-10T01:59:08.693Z,2.90
2022-09-10T02:01:52.341Z,2.70
2022-09-10T02:04:22.308Z,2.78
2022-09-10T02:06:51.602Z,2.35
2022-09-10T02:09:19.657Z,2.92
2022-09-10T02:11:54.215Z,2.70
2022-09-10T02:14:40.514Z,2.75
2022-09-10T02:17:20.273Z,2.75
2022-09-10T02:19:54.011Z,2.50
2022-09-10T02:22:23.855Z,2.72
2022-09-10T02:24:52.725Z,2.80
2022-09-10T02:27:20.504Z,3.13
2022-09-10T02:29:49.438Z,2.80
2022-09-10T02:32:17.285Z,2.65
2022-09-10T02:34:44.466Z,2.70
2022-09-10T02:37:17.502Z,2.92
2022-09-10T02:39:45.419Z,3.15
2022-09-10T02:42:16.888Z,2.97
2022-09-10T02:44:53.749Z,3.20
2022-09-10T02:47:23.034Z,3.13
2022-09-10T02:52:45.248Z,3.03
2022-09-10T02:55:13.433Z,3.25
2022-09-10T02:57:44.978Z,3.20
2022-09-10T03:00:12.657Z,3.50
2022-09-10T03:02:40.772Z,2.97
2022-09-10T03:05:12.518Z,3.20
2022-09-10T03:08:12.647Z,3.35
2022-09-10T03:10:45.312Z,3.40
2022-09-10T03:13:12.641Z,3.00
2022-09-10T03:15:42.686Z,3.15
2022-09-10T03:18:10.508Z,3.10
2022-09-10T03:20:43.769Z,2.92
2022-09-10T03:23:11.249Z,2.92
2022-09-10T03:25:38.476Z,2.85
2022-09-10T03:28:07.038Z,2.90
2022-09-10T03:30:35.766Z,3.10
2022-09-10T03:33:09.944Z,3.15
2022-09-10T03:35:36.465Z,3.00
2022-09-10T03:41:25.511Z,2.97
2022-09-10T03:43:54.348Z,3.40
2022-09-10T03:49:17.228Z,2.70
2022-09-10T03:51:44.548Z,2.95
2022-09-10T03:54:15.044Z,2.75
2022-09-10T03:56:44.865Z,2.78
2022-09-10T03:59:15.869Z,3.10
2022-09-10T04:01:42.570Z,2.97
2022-09-10T04:04:14.988Z,2.90
2022-09-10T04:06:48.555Z,2.65
2022-09-10T04:09:16.555Z,3.00
2022-09-10T04:15:01.822Z,2.72
2022-09-10T04:17:34.784Z,2.65
2022-09-10T04:20:03.320Z,2.85
2022-09-10T04:22:30.532Z,2.60
2022-09-10T04:25:00.570Z,2.40
2022-09-10T04:27:33.631Z,2.72
2022-09-10T04:30:00.492Z,2.50
2022-09-10T04:32:28.469Z,2.70
2022-09-10T04:35:02.224Z,2.70
2022-09-10T04:37:31.098Z,2.58
2022-09-10T04:40:03.547Z,2.55
2022-09-10T04:42:34.920Z,2.53
2022-09-10T04:45:02.548Z,2.67
2022-09-10T04:47:30.486Z,2.70
2022-09-10T04:50:24.533Z,2.75
2022-09-10T04:53:14.921Z,3.03
2022-09-10T04:55:46.636Z,2.72
2022-09-10T04:58:14.549Z,3.25
2022-09-10T05:01:12.044Z,2.95
2022-09-10T05:04:04.864Z,2.97
2022-09-10T05:06:34.523Z,2.67
2022-09-10T05:09:04.627Z,2.80
2022-09-10T05:14:25.439Z,2.70
2022-09-10T05:16:52.934Z,2.70
2022-09-10T05:19:20.720Z,3.03
2022-09-10T05:21:52.504Z,2.60
2022-09-10T05:24:26.149Z,3.17
2022-09-10T05:26:54.532Z,2.90
2022-09-10T05:29:22.594Z,3.00
2022-09-10T05:32:16.678Z,2.85
2022-09-10T05:34:48.612Z,3.17
2022-09-10T05:37:17.114Z,2.90
2022-09-10T05:39:55.523Z,2.90
2022-09-10T05:42:22.513Z,2.97
2022-09-10T05:44:50.613Z,3.22
2022-09-10T05:47:18.540Z,3.15
2022-09-10T05:49:51.816Z,3.13
2022-09-10T05:52:20.598Z,3.13
2022-09-10T05:54:53.495Z,3.42
2022-09-10T05:57:26.671Z,3.15
2022-09-10T05:59:54.575Z,3.38
2022-09-10T06:02:24.326Z,3.17
2022-09-10T06:05:21.335Z,3.08
2022-09-10T06:07:49.583Z,3.35
2022-09-10T06:10:22.932Z,4.00
2022-09-10T06:13:01.538Z,4.22
2022-09-10T06:18:29.024Z,3.53
2022-09-10T06:21:29.939Z,4.43
2022-09-10T06:24:03.635Z,4.07
2022-09-10T06:26:35.016Z,3.70
2022-09-10T06:29:06.480Z,3.58
2022-09-10T06:31:34.711Z,3.92
2022-09-10T06:34:04.508Z,3.50
2022-09-10T06:39:28.945Z,4.30
2022-09-10T06:42:25.728Z,3.85
2022-09-10T06:45:07.092Z,4.13
2022-09-10T06:48:38.122Z,3.47
2022-09-10T06:50:58.928Z,4.18
2022-09-10T06:53:35.570Z,3.90
2022-09-10T06:56:28.510Z,4.30
2022-09-10T07:01:55.535Z,3.80
2022-09-10T07:04:22.586Z,4.10
2022-09-10T07:06:51.469Z,4.07
2022-09-10T07:09:18.532Z,4.50
2022-09-10T07:11:52.784Z,4.13
2022-09-10T07:14:46.879Z,3.92
2022-09-10T07:17:50.599Z,4.22
2022-09-10T07:20:18.709Z,4.22
2022-09-10T07:22:55.208Z,4.53
2022-09-10T07:25:28.818Z,4.13
2022-09-10T07:28:19.548Z,4.00
2022-09-10T07:30:49.828Z,5.68
2022-09-10T07:33:19.486Z,4.90
2022-09-10T07:35:47.087Z,4.82
2022-09-10T07:38:39.572Z,5.20
2022-09-10T07:41:14.078Z,5.35
2022-09-10T07:43:43.793Z,6.07
2022-09-10T07:46:20.400Z,6.72
2022-09-10T07:52:08.500Z,6.00
2022-09-10T07:54:47.470Z,5.72
2022-09-10T07:57:14.563Z,5.60
2022-09-10T08:02:46.901Z,4.82
2022-09-10T08:05:18.565Z,4.85
2022-09-10T08:07:46.682Z,5.18
2022-09-10T08:10:23.550Z,6.20
2022-09-10T08:12:52.552Z,6.95
2022-09-10T08:15:20.516Z,6.90
2022-09-10T08:17:48.540Z,5.95
2022-09-10T08:20:41.825Z,5.80
2022-09-10T08:23:14.586Z,5.88
2022-09-10T08:25:51.593Z,5.40
2022-09-10T08:28:25.681Z,5.47
2022-09-10T08:31:07.732Z,6.32
2022-09-10T08:33:40.862Z,5.85
2022-09-10T08:36:11.969Z,6.75
2022-09-10T08:38:41.373Z,6.43
2022-09-10T08:41:38.421Z,5.97
2022-09-10T08:44:10.439Z,5.90
2022-09-10T08:46:55.757Z,7.05
2022-09-10T08:49:37.621Z,7.30
2022-09-10T08:52:32.841Z,7.68
2022-09-10T08:55:15.972Z,7.63
2022-09-10T08:58:00.087Z,7.75
2022-09-10T09:00:39.274Z,8.00
2022-09-10T09:03:50.100Z,8.55
2022-09-10T09:06:49.383Z,9.20
2022-09-10T09:09:16.771Z,7.82
2022-09-10T09:12:07.866Z,8.68
2022-09-10T09:14:49.138Z,8.02
2022-09-10T09:17:24.869Z,9.20
2022-09-10T09:19:55.148Z,9.52
2022-09-10T09:22:39.862Z,8.95
2022-09-10T09:25:31.779Z,8.68
2022-09-10T09:31:27.051Z,9.23
2022-09-10T09:34:07.242Z,9.10
2022-09-10T09:36:42.561Z,9.63
2022-09-10T09:39:31.416Z,8.98
2022-09-10T09:42:09.970Z,9.88
2022-09-10T09:47:30.616Z,9.18
2022-09-10T09:50:00.437Z,9.27
2022-09-10T09:56:13.254Z,8.90
2022-09-10T10:19:36.681Z,9.82
2022-09-10T10:22:32.110Z,8.93
2022-09-10T10:27:45.356Z,8.32
2022-09-10T10:30:18.666Z,9.02
2022-09-10T10:33:17.442Z,8.60
2022-09-10T10:36:18.343Z,8.40
2022-09-10T10:41:41.729Z,8.20
2022-09-10T10:44:27.265Z,8.38
2022-09-10T10:50:52.202Z,8.13
2022-09-10T10:56:19.914Z,7.53
2022-09-10T10:58:55.931Z,8.50
2022-09-10T11:01:26.864Z,7.80
2022-09-10T11:04:22.729Z,7.28
2022-09-10T11:07:30.696Z,6.50
2022-09-10T11:10:03.841Z,8.32
2022-09-10T11:12:43.830Z,7.57
2022-09-10T11:15:19.873Z,7.50
2022-09-10T11:24:48.140Z,7.60
2022-09-10T11:27:49.557Z,6.57
2022-09-10T11:30:22.561Z,7.07
2022-09-10T11:33:16.363Z,6.68
2022-09-10T11:35:49.116Z,6.80
2022-09-10T11:38:27.745Z,6.07
2022-09-10T11:44:47.617Z,7.00
2022-09-10T11:47:23.321Z,6.75
2022-09-10T12:07:16.261Z,6.22
2022-09-10T12:10:14.417Z,5.55
2022-09-10T12:12:53.301Z,6.25
2022-09-10T12:18:24.685Z,6.95
2022-09-10T12:20:59.458Z,7.60
2022-09-10T12:23:30.505Z,7.55
2022-09-10T12:26:10.848Z,6.55
2022-09-10T12:28:41.965Z,7.22
2022-09-10T12:31:15.822Z,7.35
2022-09-10T12:33:42.460Z,6.28
2022-09-10T12:39:27.967Z,5.75
2022-09-10T12:42:03.659Z,6.50
2022-09-10T12:44:33.376Z,6.07
2022-09-10T12:47:21.000Z,6.53
2022-09-10T12:49:54.924Z,5.30
2022-09-10T12:55:40.182Z,6.03
2022-09-10T12:58:35.651Z,5.75
2022-09-10T13:01:39.340Z,5.85
2022-09-10T13:04:21.616Z,6.03
2022-09-10T13:07:24.539Z,5.25
2022-09-10T13:10:16.425Z,4.70
2022-09-10T13:12:56.939Z,4.72
2022-09-10T13:15:38.107Z,5.47
2022-09-10T13:18:37.023Z,4.82
2022-09-10T13:21:22.786Z,5.20
2022-09-10T13:23:57.682Z,4.65
2022-09-10T13:26:39.629Z,4.70
2022-09-10T13:29:26.562Z,5.05
2022-09-10T13:32:27.511Z,4.75
2022-09-10T13:35:18.269Z,5.30
2022-09-10T13:47:49.416Z,4.90
2022-09-10T13:50:26.611Z,4.32
2022-09-10T13:53:00.631Z,4.80
2022-09-10T13:55:34.080Z,5.40
2022-09-10T13:58:14.645Z,4.70
2022-09-10T14:00:57.629Z,4.60
2022-09-10T14:03:47.890Z,4.40
2022-09-10T14:50:08.363Z,4.20
2022-09-10T15:01:03.083Z,3.90
2022-09-10T16:20:21.837Z,4.75
2022-09-10T16:22:48.840Z,4.78
2022-09-10T16:25:16.667Z,4.85
2022-09-10T16:27:50.418Z,4.95
2022-09-10T16:30:19.170Z,5.05
2022-09-10T16:32:46.817Z,5.15
2022-09-10T16:35:14.769Z,4.97
2022-09-10T16:37:47.764Z,5.15
2022-09-10T17:23:56.075Z,4.10
2022-09-10T17:38:06.900Z,4.50
2022-09-10T17:40:34.592Z,4.15
2022-09-10T17:43:07.693Z,4.90
2022-09-10T17:45:36.762Z,4.75
2022-09-10T17:48:04.657Z,4.90
2022-09-10T17:50:32.497Z,5.68
2022-09-10T17:53:01.191Z,4.65
2022-09-10T17:55:33.870Z,7.38
2022-09-10T17:58:00.593Z,5.32
2022-09-10T18:00:33.523Z,7.25
2022-09-10T18:03:00.673Z,6.63
2022-09-10T18:08:20.625Z,7.53
2022-09-10T18:11:12.017Z,6.53
2022-09-10T18:13:40.569Z,9.70
2022-09-10T18:16:15.171Z,11.57
2022-09-10T18:18:45.664Z,13.85
2022-09-10T18:27:18.995Z,21.38
2022-09-10T18:29:46.869Z,19.13
2022-09-10T18:32:14.912Z,13.93
2022-09-10T18:34:43.286Z,17.45
2022-09-10T18:37:10.795Z,20.50
2022-09-10T18:40:06.613Z,17.08
2022-09-10T18:42:38.675Z,12.93
2022-09-10T18:45:06.981Z,11.52
2022-09-10T18:47:44.458Z,10.77
2022-09-10T18:50:36.863Z,15.32
2022-09-10T18:53:04.825Z,15.57
2022-09-10T18:55:32.674Z,15.27
2022-09-10T18:58:06.115Z,14.07
2022-09-10T19:00:34.526Z,14.23
2022-09-10T19:03:02.816Z,12.98
2022-09-10T19:05:31.618Z,15.68
2022-09-10T19:08:03.986Z,14.52
2022-09-10T19:10:32.872Z,14.02
2022-09-10T19:13:06.095Z,14.32
2022-09-10T19:15:34.610Z,15.18
2022-09-10T19:18:06.273Z,14.68
2022-09-10T19:21:07.432Z,14.73
2022-09-10T19:23:36.000Z,16.02
2022-09-10T19:28:58.749Z,15.18
2022-09-10T19:31:28.806Z,15.43
2022-09-10T19:34:02.126Z,16.35
2022-09-10T19:36:33.548Z,15.23
2022-09-10T19:39:08.938Z,16.17
2022-09-10T19:41:44.581Z,16.20
2022-09-10T19:44:14.595Z,15.20
2022-09-10T19:52:20.327Z,17.42
2022-09-10T19:55:15.654Z,17.30
2022-09-10T19:57:43.340Z,19.83
2022-09-10T20:06:39.020Z,18.95
2022-09-10T20:09:10.550Z,18.25
2022-09-10T20:12:06.839Z,17.27
2022-09-10T20:14:39.474Z,16.83
2022-09-10T20:17:41.968Z,17.20
2022-09-10T20:20:13.287Z,18.27
2022-09-10T20:34:09.697Z,16.50
2022-09-10T20:47:10.117Z,17.25
2022-09-10T20:49:38.649Z,17.05
2022-09-10T20:55:03.077Z,16.50
2022-09-10T23:06:24.183Z,18.08
2022-09-10T23:17:56.522Z,18.63
2022-09-10T23:20:30.796Z,17.90
2022-09-10T23:23:00.576Z,17.75
2022-09-10T23:25:29.359Z,17.77
2022-09-10T23:33:24.863Z,18.67
2022-09-10T23:35:53.911Z,17.90
2022-09-10T23:38:22.738Z,18.38
2022-09-10T23:43:41.377Z,17.77
2022-09-10T23:46:15.050Z,17.88
2022-09-10T23:51:32.667Z,16.88
2022-09-10T23:54:06.811Z,18.42
2022-09-10T23:56:34.629Z,17.40
2022-09-10T23:59:08.513Z,18.48
